Flight Track Log - Related Links

Times and Time Zones

All times are in EDT time to prevent confusion due to time zone crossing. See the PDT4384 flight status page for this flight to view local times or setup timezone preferences in your user account.


Time Position Orientation Groundspeed Altitude Reporting Facility
EDT Latitude Longitude Course Direction KTS MPH feet Rate Location/Type
Wed 08:33:46 PM 39.8833 -75.2000 90° East 114 131 600  Level Philadelphia TRACON
Wed 08:34:16 PM 39.8833 -75.1833 90° East 122 140 1,400 1,600 Climbing Philadelphia TRACON
Wed 08:35:16 PM 39.8667 -75.1333 113° Southeast 126 145 3,000 1,222 Climbing Philadelphia TRACON
Wed 08:36:00 PM 39.9810 -74.9962 75° East  Level Estimated
Wed 08:37:00 PM 40.0172 -74.9145 84° East  Level Estimated
Wed 08:37:03 PM 39.8544 -75.0569 102° East 129 148 4,800  Level New York Center
Wed 08:38:00 PM 39.9837 -74.8308 118° Southeast  Level FlightAware Approximate
Wed 08:38:03 PM 39.8439 -75.0022 104° East 145 167 5,700  Level New York Center
Wed 08:39:00 PM 40.0222 -74.7510 90° East  Level Estimated
Wed 08:39:03 PM 39.8314 -74.9419 105° East 166 191 6,600  Level New York Center
Wed 08:40:03 PM 39.8169 -74.8789 107° East 172 198 7,500 900 Climbing New York Center
Wed 08:41:03 PM 39.8028 -74.8078 105° East 187 215 8,400 900 Climbing New York Center
Wed 08:42:03 PM 39.7903 -74.7422 104° East 187 215 9,300 900 Climbing New York Center
Wed 08:43:03 PM 39.7903 -74.6772 90° East 182 209 10,200 800 Climbing New York Center
Wed 08:44:03 PM 39.7989 -74.6103 80° East 182 209 10,900 350 Climbing New York Center
Wed 08:45:03 PM 39.8053 -74.5403 83° East 177 204 10,900  Level New York Center
Wed 08:46:03 PM 39.8097 -74.4622 86° East 204 235 10,900  Level New York Center
Wed 08:47:03 PM 39.8164 -74.3842 84° East 212 244 10,900  Level New York Center
Wed 08:48:03 PM 39.8189 -74.3033 88° East 217 250 10,900  Level New York Center
Wed 08:49:03 PM 39.8189 -74.2331 90° East 217 250 10,900  Level New York Center
Wed 08:50:03 PM 39.8214 -74.1519 88° East 217 250 10,900 50 Level New York Center
Wed 08:51:03 PM 39.8217 -74.0628 90° East 217 250 11,000 50 Climbing New York Center
Wed 08:52:03 PM 39.8197 -73.9844 92° East 217 250 11,000  Level New York Center
Wed 08:53:03 PM 39.8175 -73.9114 92° East 217 250 11,000  Level New York Center
Wed 08:54:03 PM 39.8361 -73.8364 72° East 217 250 11,000  Level New York Center
Wed 08:55:03 PM 39.8794 -73.7733 48° Northeast 214 246 11,000  Level New York Center
Wed 08:56:03 PM 39.9186 -73.7103 51° Northeast 219 252 11,000  Level New York Center
Wed 08:57:03 PM 39.9619 -73.6497 47° Northeast 225 259 11,000  Level New York Center
Wed 08:58:03 PM 40.0031 -73.5864 50° Northeast 225 259 11,000  Level New York Center
Wed 08:59:03 PM 40.0397 -73.5311 49° Northeast 225 259 11,000 -348 Level New York Center
Wed 09:00:38 PM 40.1100 -73.4222 50° Northeast 235 270 10,100 -615 Descending Boston Center
Wed 09:01:39 PM 40.1544 -73.3550 49° Northeast 235 270 9,400 -545 Descending Boston Center
Wed 09:02:39 PM 40.2028 -73.2878 47° Northeast 240 276 9,000 -197 Descending Boston Center
Wed 09:03:41 PM 40.2472 -73.2203 49° Northeast 240 276 9,000  Level Boston Center
Wed 09:04:38 PM 40.2892 -73.1583 48° Northeast 235 270 9,000  Level Boston Center
Wed 09:05:38 PM 40.3269 -73.1014 49° Northeast 230 265 9,000  Level Boston Center
Wed 09:06:39 PM 40.3669 -73.0392 50° Northeast 230 265 9,000 -433 Level Boston Center
Wed 09:08:38 PM 40.4500 -72.9000 52° Northeast 251 289 7,700 -771 Descending New York TRACON
Wed 09:09:38 PM 40.5000 -72.8333 45° Northeast 264 304 6,700 -1,053 Descending New York TRACON
Wed 09:10:32 PM 40.5667 -72.8000 21° North 278 320 5,700 -1,050 Descending New York TRACON
Wed 09:11:38 PM 40.6167 -72.8833 308° West 276 318 4,600 -1,000 Descending New York TRACON
Wed 09:12:38 PM 40.6500 -72.9833 294° West 276 318 3,600 -1,000 Descending New York TRACON
Wed 09:13:38 PM 40.6833 -73.0667 298° West 270 311 2,600 -800 Descending New York TRACON
Wed 09:14:38 PM 40.7167 -73.1333 303° West 210 242 2,000 -632 Descending New York TRACON
Wed 09:15:32 PM 40.7500 -73.1667 323° Northwest 142 163 1,400 -632 Descending New York TRACON
Wed 09:16:32 PM 40.7667 -73.1333 57° Northeast 100 115 800 -600 Descending New York TRACON

Login

Don't have an account? Register now (free) for customized features, flight alerts, and more!